createdAt,value
2018-06-22T00:02:05.668Z,8.67
2018-06-22T00:04:34.028Z,10.78
2018-06-22T00:07:02.450Z,12.13
2018-06-22T00:09:30.805Z,7.78
2018-06-22T00:11:59.124Z,8.40
2018-06-22T00:14:27.448Z,12.03
2018-06-22T00:16:55.837Z,11.73
2018-06-22T00:19:24.248Z,9.70
2018-06-22T00:21:52.607Z,9.90
2018-06-22T00:24:20.974Z,8.60
2018-06-22T00:26:49.345Z,13.83
2018-06-22T00:29:17.706Z,7.78
2018-06-22T00:31:46.054Z,11.97
2018-06-22T00:34:14.413Z,10.80
2018-06-22T00:36:42.511Z,9.70
2018-06-22T00:39:11.549Z,10.53
2018-06-22T00:41:39.975Z,14.98
2018-06-22T00:44:08.334Z,7.03
2018-06-22T00:46:36.809Z,17.00
2018-06-22T00:49:05.161Z,16.73
2018-06-22T00:51:33.515Z,6.67
2018-06-22T00:54:13.998Z,10.32
2018-06-22T00:56:42.344Z,11.12
2018-06-22T00:59:11.293Z,11.40
2018-06-22T01:01:39.661Z,15.32
2018-06-22T01:04:08.333Z,17.25
2018-06-22T01:06:36.692Z,11.37
2018-06-22T01:09:07.810Z,11.18
2018-06-22T01:11:36.121Z,9.55
2018-06-22T01:14:04.900Z,11.55
2018-06-22T01:16:33.280Z,8.88
2018-06-22T01:19:01.664Z,14.35
2018-06-22T01:21:30.039Z,11.70
2018-06-22T01:23:58.403Z,10.98
2018-06-22T01:26:26.772Z,11.75
2018-06-22T01:29:00.664Z,11.53
2018-06-22T01:31:29.031Z,13.17
2018-06-22T01:33:57.594Z,6.87
2018-06-22T01:36:26.047Z,10.28
2018-06-22T01:38:54.408Z,10.98
2018-06-22T01:41:23.142Z,10.93
2018-06-22T01:43:51.540Z,13.15
2018-06-22T01:46:19.623Z,6.97
2018-06-22T01:48:47.764Z,10.53
2018-06-22T01:51:16.131Z,12.05
2018-06-22T01:53:44.501Z,22.05
2018-06-22T01:56:12.872Z,16.17
2018-06-22T01:58:41.276Z,11.83
2018-06-22T02:01:09.624Z,13.53
2018-06-22T02:03:37.995Z,7.97
2018-06-22T02:06:06.364Z,12.80
2018-06-22T02:08:34.748Z,14.43
2018-06-22T02:11:03.162Z,10.45
2018-06-22T02:13:31.557Z,10.75
2018-06-22T02:15:59.920Z,16.52
2018-06-22T02:18:28.286Z,9.53
2018-06-22T02:20:56.653Z,11.35
2018-06-22T02:23:25.047Z,11.83
2018-06-22T02:25:53.424Z,12.47
2018-06-22T02:28:21.774Z,15.28
2018-06-22T02:30:50.139Z,13.25
2018-06-22T02:33:18.500Z,14.68
2018-06-22T02:35:46.590Z,9.87
2018-06-22T02:38:14.972Z,13.65
2018-06-22T02:40:43.379Z,13.30
2018-06-22T02:43:11.781Z,12.28
2018-06-22T02:45:40.171Z,16.67
2018-06-22T02:48:08.576Z,15.53
2018-06-22T02:50:36.975Z,11.83
2018-06-22T02:53:05.430Z,15.25
2018-06-22T02:55:33.783Z,15.47
2018-06-22T02:58:02.219Z,13.75
2018-06-22T03:00:30.609Z,11.43
2018-06-22T03:02:58.991Z,12.13
2018-06-22T03:05:27.366Z,14.43
2018-06-22T03:07:55.743Z,12.10
2018-06-22T03:10:24.117Z,11.73
2018-06-22T03:12:52.489Z,13.60
2018-06-22T03:15:20.870Z,17.32
2018-06-22T03:17:49.228Z,24.12
2018-06-22T03:20:17.554Z,17.45
2018-06-22T03:22:45.938Z,10.00
2018-06-22T03:25:14.356Z,19.10
2018-06-22T03:27:42.744Z,10.78
2018-06-22T03:30:11.133Z,14.53
2018-06-22T03:32:39.511Z,12.28
2018-06-22T03:35:07.910Z,12.70
2018-06-22T03:37:36.277Z,13.40
2018-06-22T03:40:04.697Z,15.27
2018-06-22T03:42:33.168Z,12.82
2018-06-22T03:45:01.644Z,13.03
2018-06-22T03:47:30.032Z,12.23
2018-06-22T03:49:58.428Z,13.47
2018-06-22T03:52:26.576Z,12.90
2018-06-22T03:54:54.987Z,12.33
2018-06-22T03:57:23.061Z,7.87
2018-06-22T03:59:51.228Z,12.60
2018-06-22T04:02:19.623Z,8.45
2018-06-22T04:04:48.019Z,14.40
2018-06-22T04:07:16.419Z,13.70
2018-06-22T04:09:45.520Z,9.88
2018-06-22T04:12:13.911Z,12.40
2018-06-22T04:14:42.280Z,14.93
2018-06-22T04:17:10.684Z,18.20
2018-06-22T04:19:39.034Z,10.98
2018-06-22T04:22:07.441Z,12.50
2018-06-22T04:24:35.839Z,11.63
2018-06-22T04:27:03.962Z,14.43
2018-06-22T04:29:32.355Z,15.65
2018-06-22T04:32:00.745Z,11.40
2018-06-22T04:34:29.137Z,17.87
2018-06-22T04:36:57.246Z,15.50
2018-06-22T04:39:25.626Z,12.90
2018-06-22T04:41:54.008Z,13.13
2018-06-22T04:44:22.383Z,14.40
2018-06-22T04:46:50.775Z,17.20
2018-06-22T04:49:19.112Z,18.25
2018-06-22T04:51:47.196Z,13.23
2018-06-22T04:54:15.549Z,9.10
2018-06-22T04:56:43.746Z,15.70
2018-06-22T04:59:12.141Z,15.90
2018-06-22T05:01:40.553Z,17.80
2018-06-22T05:04:08.983Z,12.03
2018-06-22T05:06:37.360Z,13.35
2018-06-22T05:09:07.352Z,14.70
2018-06-22T05:11:35.753Z,15.70
2018-06-22T05:14:04.186Z,14.83
2018-06-22T05:16:32.655Z,12.37
2018-06-22T05:19:01.043Z,11.93
2018-06-22T05:21:29.424Z,13.93
2018-06-22T05:23:57.794Z,12.55
2018-06-22T05:26:26.167Z,17.85
2018-06-22T05:28:54.550Z,13.90
2018-06-22T05:31:22.958Z,11.93
2018-06-22T05:33:51.343Z,9.60
2018-06-22T05:36:19.715Z,19.30
2018-06-22T05:38:48.103Z,18.35
2018-06-22T05:41:16.499Z,12.23
2018-06-22T05:43:44.931Z,15.32
2018-06-22T05:46:13.306Z,19.12
2018-06-22T05:48:41.801Z,12.67
2018-06-22T05:51:10.810Z,13.53
2018-06-22T05:53:39.201Z,17.30
2018-06-22T05:56:07.560Z,13.50
2018-06-22T05:58:36.066Z,15.55
2018-06-22T06:01:04.154Z,14.98
2018-06-22T06:05:55.800Z,20.45
2018-06-22T06:08:24.186Z,14.55
2018-06-22T06:10:52.568Z,15.60
2018-06-22T06:13:20.987Z,15.90
2018-06-22T06:15:49.396Z,14.53
2018-06-22T06:18:17.776Z,11.10
2018-06-22T06:20:46.166Z,11.90
2018-06-22T06:23:14.575Z,15.05
2018-06-22T06:25:42.956Z,12.47
2018-06-22T06:28:11.340Z,15.90
2018-06-22T06:30:39.732Z,14.78
2018-06-22T06:33:08.106Z,12.25
2018-06-22T06:35:36.484Z,14.25
2018-06-22T06:38:04.910Z,17.40
2018-06-22T06:40:33.284Z,13.13
2018-06-22T06:43:01.689Z,19.07
2018-06-22T06:45:30.101Z,14.38
2018-06-22T06:47:58.495Z,15.28
2018-06-22T06:50:26.892Z,17.00
2018-06-22T06:52:55.270Z,16.48
2018-06-22T06:55:23.656Z,18.57
2018-06-22T06:57:52.028Z,18.85
2018-06-22T07:00:20.442Z,20.43
2018-06-22T07:02:48.866Z,12.53
2018-06-22T07:05:17.263Z,15.50
2018-06-22T07:07:45.348Z,20.12
2018-06-22T07:10:13.727Z,18.12
2018-06-22T07:12:42.135Z,15.65
2018-06-22T07:15:10.532Z,14.65
2018-06-22T07:17:38.940Z,13.48
2018-06-22T07:20:07.608Z,14.78
2018-06-22T07:22:35.990Z,17.62
2018-06-22T07:25:04.491Z,12.33
2018-06-22T07:27:32.548Z,15.10
2018-06-22T07:30:00.935Z,12.35
2018-06-22T07:32:29.336Z,16.75
2018-06-22T07:34:57.738Z,12.88
2018-06-22T07:37:26.180Z,13.73
2018-06-22T07:39:54.551Z,17.32
2018-06-22T07:42:22.947Z,17.40
2018-06-22T07:44:51.054Z,14.47
2018-06-22T07:47:19.529Z,13.22
2018-06-22T07:49:47.934Z,16.87
2018-06-22T07:52:16.307Z,13.32
2018-06-22T07:54:44.659Z,15.30
2018-06-22T07:57:13.031Z,12.13
2018-06-22T07:59:41.398Z,13.73
2018-06-22T08:02:09.801Z,20.20
2018-06-22T08:04:38.210Z,16.48
2018-06-22T08:07:06.630Z,14.83
2018-06-22T08:09:34.684Z,12.65
2018-06-22T08:12:03.068Z,13.18
2018-06-22T08:14:31.470Z,16.02
2018-06-22T08:16:59.896Z,14.75
2018-06-22T08:19:28.266Z,8.73
2018-06-22T08:21:56.627Z,15.90
2018-06-22T08:24:25.220Z,16.53
2018-06-22T08:26:53.624Z,15.63
2018-06-22T08:29:21.983Z,16.35
2018-06-22T08:31:50.380Z,15.13
2018-06-22T08:34:18.727Z,10.65
2018-06-22T08:36:47.144Z,11.57
2018-06-22T08:39:15.521Z,10.60
2018-06-22T08:41:43.925Z,8.80
2018-06-22T08:44:11.992Z,12.50
2018-06-22T08:46:40.344Z,15.83
2018-06-22T08:49:08.787Z,14.57
2018-06-22T08:51:37.165Z,13.53
2018-06-22T08:54:05.544Z,18.73
2018-06-22T08:56:33.918Z,16.50
2018-06-22T08:59:02.275Z,12.35
2018-06-22T09:01:30.676Z,15.43
2018-06-22T09:03:59.089Z,10.15
2018-06-22T09:06:27.489Z,16.30
2018-06-22T09:08:56.076Z,14.18
2018-06-22T09:11:24.471Z,14.27
2018-06-22T09:13:52.579Z,11.40
2018-06-22T09:16:21.047Z,16.00
2018-06-22T09:18:49.438Z,11.80
2018-06-22T09:21:17.813Z,10.37
2018-06-22T09:23:46.221Z,12.35
2018-06-22T09:26:14.590Z,14.03
2018-06-22T09:28:42.956Z,11.63
2018-06-22T09:31:11.431Z,9.48
2018-06-22T09:33:39.824Z,13.13
2018-06-22T09:36:08.208Z,7.53
2018-06-22T09:38:36.589Z,10.00
2018-06-22T09:41:05.006Z,9.30
2018-06-22T09:43:33.142Z,13.10
2018-06-22T09:46:01.515Z,8.23
2018-06-22T09:48:29.924Z,8.87
2018-06-22T09:50:58.345Z,10.60
2018-06-22T09:53:26.716Z,7.62
2018-06-22T09:55:55.125Z,10.30
2018-06-22T09:58:23.837Z,6.42
2018-06-22T10:00:53.030Z,10.03
2018-06-22T10:03:22.846Z,8.35
2018-06-22T10:05:51.206Z,10.72
2018-06-22T10:08:19.701Z,10.95
2018-06-22T10:10:48.070Z,7.72
2018-06-22T10:13:16.881Z,7.78
2018-06-22T10:15:52.929Z,15.53
2018-06-22T10:18:21.390Z,8.80
2018-06-22T10:20:49.822Z,7.33
2018-06-22T10:23:18.208Z,8.10
2018-06-22T10:25:46.556Z,5.20
2018-06-22T10:28:14.888Z,3.60
2018-06-22T10:30:43.266Z,6.45
2018-06-22T10:33:11.676Z,10.00
2018-06-22T10:35:40.093Z,6.28
2018-06-22T10:38:08.612Z,9.63
2018-06-22T10:40:37.423Z,6.53
2018-06-22T10:43:06.312Z,5.93
2018-06-22T10:45:34.725Z,7.08
2018-06-22T10:48:02.814Z,5.47
2018-06-22T10:50:31.254Z,6.03
2018-06-22T10:52:59.736Z,5.42
2018-06-22T10:55:28.184Z,8.28
2018-06-22T10:57:56.632Z,6.58
2018-06-22T11:00:25.018Z,6.13
2018-06-22T11:02:53.426Z,4.37
2018-06-22T11:05:21.803Z,8.00
2018-06-22T11:07:50.141Z,7.53
2018-06-22T11:10:18.472Z,10.88
2018-06-22T11:12:46.813Z,7.87
2018-06-22T11:15:15.136Z,6.20
2018-06-22T11:17:43.525Z,9.58
2018-06-22T11:20:12.225Z,11.93
2018-06-22T11:22:40.668Z,5.10
2018-06-22T11:25:09.063Z,6.63
2018-06-22T11:27:37.446Z,4.70
2018-06-22T11:30:06.041Z,5.70
2018-06-22T11:32:34.366Z,6.45
2018-06-22T11:35:02.757Z,4.70
2018-06-22T11:37:31.144Z,6.60
2018-06-22T11:39:59.582Z,4.37
2018-06-22T11:42:27.970Z,5.05
2018-06-22T11:44:56.375Z,6.83
2018-06-22T11:47:24.974Z,5.15
2018-06-22T11:49:53.361Z,5.80
2018-06-22T11:52:21.856Z,5.65
2018-06-22T11:54:49.982Z,4.10
2018-06-22T11:57:18.494Z,9.03
2018-06-22T11:59:46.949Z,5.70
2018-06-22T12:02:15.359Z,8.30
2018-06-22T12:04:43.782Z,4.70
2018-06-22T12:07:12.201Z,7.35
2018-06-22T12:09:40.594Z,6.83
2018-06-22T12:12:08.961Z,3.72
2018-06-22T12:14:37.347Z,5.42
2018-06-22T12:17:05.690Z,6.30
2018-06-22T12:19:34.074Z,6.45
2018-06-22T12:22:02.446Z,8.90
2018-06-22T12:24:30.816Z,7.80
2018-06-22T12:26:59.202Z,5.53
2018-06-22T12:29:27.578Z,4.33
2018-06-22T12:31:55.971Z,5.70
2018-06-22T12:34:24.341Z,6.00
2018-06-22T12:36:53.164Z,5.37
2018-06-22T12:39:21.562Z,6.97
2018-06-22T12:41:49.933Z,6.72
2018-06-22T12:44:18.310Z,3.80
2018-06-22T12:46:46.747Z,4.70
2018-06-22T12:49:15.148Z,4.00
2018-06-22T12:51:43.523Z,3.45
2018-06-22T12:54:11.901Z,3.42
2018-06-22T12:56:40.332Z,2.40
2018-06-22T12:59:08.708Z,2.58
2018-06-22T13:01:37.052Z,4.03
2018-06-22T13:04:05.592Z,2.62
2018-06-22T13:06:33.935Z,5.53
2018-06-22T13:09:02.018Z,5.05
2018-06-22T13:11:30.405Z,5.67
2018-06-22T13:13:58.768Z,4.97
2018-06-22T13:16:27.140Z,5.78
2018-06-22T13:18:55.532Z,7.72
2018-06-22T13:21:23.935Z,4.10
2018-06-22T13:23:52.364Z,7.20
2018-06-22T13:26:20.757Z,4.37
2018-06-22T13:28:48.832Z,6.70
2018-06-22T13:31:16.957Z,6.37
2018-06-22T13:33:45.364Z,5.67
2018-06-22T13:36:13.729Z,6.00
2018-06-22T13:38:42.151Z,3.83
2018-06-22T13:41:10.525Z,4.62
2018-06-22T13:43:38.754Z,5.17
2018-06-22T13:46:07.347Z,4.28
2018-06-22T13:48:35.730Z,4.33
2018-06-22T13:51:04.144Z,3.90
2018-06-22T13:53:32.718Z,3.67
2018-06-22T13:56:00.815Z,4.45
2018-06-22T13:58:29.211Z,4.40
2018-06-22T14:00:57.647Z,5.65
2018-06-22T14:03:25.913Z,11.38
2018-06-22T14:05:59.808Z,10.05
2018-06-22T14:08:28.159Z,9.25
2018-06-22T14:10:56.534Z,6.62
2018-06-22T14:13:24.912Z,5.47
2018-06-22T14:15:53.290Z,5.55
2018-06-22T14:18:21.697Z,6.45
2018-06-22T14:20:50.089Z,6.90
2018-06-22T14:23:18.458Z,10.30
2018-06-22T14:25:46.859Z,11.50
2018-06-22T14:28:15.305Z,16.23
2018-06-22T14:30:43.645Z,11.03
2018-06-22T14:33:12.025Z,7.00
2018-06-22T14:35:40.410Z,7.80
2018-06-22T14:38:08.800Z,10.23
2018-06-22T14:40:37.192Z,25.50
2018-06-22T14:43:05.861Z,10.15
2018-06-22T14:45:34.314Z,11.33
2018-06-22T14:48:02.724Z,7.65
2018-06-22T14:50:31.097Z,8.85
2018-06-22T14:52:59.468Z,10.55
2018-06-22T14:55:33.245Z,7.70
2018-06-22T14:58:06.817Z,8.48
2018-06-22T15:00:40.624Z,6.50
2018-06-22T15:03:14.321Z,6.75
2018-06-22T15:05:48.031Z,6.15
2018-06-22T15:08:20.320Z,6.53
2018-06-22T15:10:48.404Z,7.75
2018-06-22T15:13:16.463Z,6.47
2018-06-22T15:15:44.852Z,5.10
2018-06-22T15:18:12.928Z,7.67
2018-06-22T15:20:41.287Z,5.40
2018-06-22T15:23:09.693Z,7.62
2018-06-22T15:25:38.072Z,4.63
2018-06-22T15:28:06.465Z,6.27
2018-06-22T15:30:34.834Z,10.72
2018-06-22T15:33:03.188Z,8.33
2018-06-22T15:35:36.825Z,6.40
2018-06-22T15:38:10.564Z,7.28
2018-06-22T15:40:44.307Z,4.50
2018-06-22T15:43:18.104Z,6.47
2018-06-22T15:45:51.636Z,6.83
2018-06-22T15:48:25.483Z,5.95
2018-06-22T15:50:59.330Z,10.23
2018-06-22T15:53:33.085Z,6.47
2018-06-22T15:56:06.827Z,5.53
2018-06-22T15:58:35.228Z,6.55
2018-06-22T16:01:03.629Z,9.93
2018-06-22T16:03:37.490Z,6.30
2018-06-22T16:06:06.533Z,7.80
2018-06-22T16:08:34.982Z,8.90
2018-06-22T16:11:03.441Z,10.23
2018-06-22T16:13:31.773Z,8.00
2018-06-22T16:16:05.720Z,9.33
2018-06-22T16:18:39.242Z,13.60
2018-06-22T16:21:13.101Z,9.48
2018-06-22T16:23:46.817Z,12.05
2018-06-22T16:26:20.570Z,11.20
2018-06-22T16:28:49.100Z,7.80
2018-06-22T16:31:17.516Z,9.05
2018-06-22T16:33:55.947Z,10.20
2018-06-22T16:36:25.384Z,6.72
2018-06-22T16:38:53.835Z,7.53
2018-06-22T16:41:22.501Z,7.03
2018-06-22T16:43:50.931Z,9.80
2018-06-22T16:46:19.324Z,12.10
2018-06-22T16:48:47.720Z,7.80
2018-06-22T16:51:16.118Z,11.83
2018-06-22T16:53:44.492Z,7.80
2018-06-22T16:56:12.887Z,13.05
2018-06-22T16:58:41.521Z,8.78
2018-06-22T17:01:11.027Z,8.23
2018-06-22T17:03:39.437Z,9.47
2018-06-22T17:06:08.404Z,7.58
2018-06-22T17:08:42.236Z,10.15
2018-06-22T17:11:16.107Z,10.82
2018-06-22T17:13:49.913Z,13.38
2018-06-22T17:16:23.504Z,12.25
2018-06-22T17:18:55.440Z,11.10
2018-06-22T17:21:23.987Z,8.77
2018-06-22T17:23:52.348Z,8.53
2018-06-22T17:26:20.729Z,8.10
2018-06-22T17:28:49.106Z,6.30
2018-06-22T17:31:17.531Z,8.35
2018-06-22T17:33:45.877Z,8.88
2018-06-22T17:36:13.957Z,8.68
2018-06-22T17:38:42.348Z,8.58
2018-06-22T17:41:10.743Z,9.78
2018-06-22T17:43:39.177Z,17.35
2018-06-22T17:46:07.327Z,7.37
2018-06-22T17:48:35.785Z,8.00
2018-06-22T17:51:04.188Z,9.78
2018-06-22T17:53:32.553Z,8.20
2018-06-22T17:56:00.937Z,7.97
2018-06-22T17:58:29.383Z,10.63
2018-06-22T18:01:03.069Z,9.77
2018-06-22T18:03:36.944Z,9.53
2018-06-22T18:06:10.789Z,7.13
2018-06-22T18:08:43.358Z,6.53
2018-06-22T18:11:17.287Z,6.85
2018-06-22T18:13:45.704Z,6.45
2018-06-22T18:16:14.090Z,7.70
2018-06-22T18:18:42.496Z,7.80
2018-06-22T18:21:10.593Z,8.28
2018-06-22T18:23:39.004Z,8.00
2018-06-22T18:26:07.431Z,7.45
2018-06-22T18:28:35.832Z,6.40
2018-06-22T18:31:04.224Z,8.47
2018-06-22T18:33:32.617Z,6.17
2018-06-22T18:36:01.226Z,6.20
2018-06-22T18:38:29.354Z,8.70
2018-06-22T18:40:57.730Z,8.95
2018-06-22T18:43:31.612Z,5.12
2018-06-22T18:45:59.719Z,6.17
2018-06-22T18:48:28.118Z,6.70
2018-06-22T18:50:56.513Z,9.27
2018-06-22T18:53:30.154Z,11.37
2018-06-22T18:56:03.887Z,10.43
2018-06-22T18:58:37.644Z,8.40
2018-06-22T19:01:11.332Z,5.85
2018-06-22T19:03:46.911Z,9.70
2018-06-22T19:06:15.564Z,11.03
2018-06-22T19:08:44.091Z,9.20
2018-06-22T19:11:12.527Z,9.15
2018-06-22T19:13:41.290Z,7.78
2018-06-22T19:16:09.776Z,10.80
2018-06-22T19:18:38.274Z,10.68
2018-06-22T19:21:07.247Z,8.38
2018-06-22T19:23:35.750Z,7.87
2018-06-22T19:26:04.188Z,8.05
2018-06-22T19:28:32.573Z,12.10
2018-06-22T19:31:00.958Z,13.17
2018-06-22T19:33:29.571Z,8.07
2018-06-22T19:35:57.739Z,10.13
2018-06-22T19:38:26.203Z,6.45
2018-06-22T19:40:54.630Z,11.08
2018-06-22T19:43:28.479Z,12.60
2018-06-22T19:46:02.348Z,9.20
2018-06-22T19:48:36.099Z,14.60
2018-06-22T19:51:09.875Z,10.75
2018-06-22T19:53:43.599Z,13.23
2018-06-22T19:56:12.085Z,10.60
2018-06-22T19:58:40.479Z,10.40
2018-06-22T20:01:08.865Z,12.35
2018-06-22T20:03:37.262Z,15.27
2018-06-22T20:06:05.985Z,15.30
2018-06-22T20:08:34.414Z,11.73
2018-06-22T20:11:02.816Z,13.15
2018-06-22T20:13:31.281Z,14.98
2018-06-22T20:15:59.399Z,13.57
2018-06-22T20:18:27.828Z,10.25
2018-06-22T20:20:56.236Z,16.03
2018-06-22T20:23:24.619Z,12.23
2018-06-22T20:25:52.994Z,11.68
2018-06-22T20:28:21.410Z,13.35
2018-06-22T20:30:49.823Z,17.05
2018-06-22T20:33:21.169Z,16.00
2018-06-22T20:35:55.028Z,13.90
2018-06-22T20:38:28.876Z,15.40
2018-06-22T20:41:02.815Z,15.00
2018-06-22T20:43:36.624Z,14.68
2018-06-22T20:46:05.089Z,12.37
2018-06-22T20:48:38.780Z,15.30
2018-06-22T20:51:07.168Z,15.83
2018-06-22T20:53:35.611Z,15.83
2018-06-22T20:56:04.071Z,11.53
2018-06-22T20:58:32.501Z,10.60
2018-06-22T21:01:00.627Z,15.60
2018-06-22T21:03:29.048Z,12.60
2018-06-22T21:05:57.444Z,13.87
2018-06-22T21:08:25.530Z,11.85
2018-06-22T21:10:53.906Z,15.17
2018-06-22T21:13:22.351Z,10.45
2018-06-22T21:15:50.733Z,15.15
2018-06-22T21:18:19.122Z,15.18
2018-06-22T21:20:52.915Z,13.32
2018-06-22T21:23:21.333Z,14.63
2018-06-22T21:25:51.512Z,18.45
2018-06-22T21:28:25.583Z,15.18
2018-06-22T21:30:59.206Z,13.28
2018-06-22T21:33:32.940Z,16.10
2018-06-22T21:36:06.855Z,13.32
2018-06-22T21:38:40.384Z,16.23
2018-06-22T21:41:09.039Z,14.40
2018-06-22T21:43:37.145Z,12.00
2018-06-22T21:46:05.924Z,12.80
2018-06-22T21:48:34.340Z,16.17
2018-06-22T21:51:02.681Z,13.37
2018-06-22T21:53:31.087Z,13.22
2018-06-22T21:55:59.500Z,15.85
2018-06-22T21:58:27.924Z,12.78
2018-06-22T22:00:56.409Z,15.23
2018-06-22T22:03:24.806Z,11.13
2018-06-22T22:05:53.193Z,11.03
2018-06-22T22:08:21.594Z,15.43
2018-06-22T22:11:09.676Z,13.45
2018-06-22T22:13:39.141Z,15.60
2018-06-22T22:16:08.369Z,14.55
2018-06-22T22:18:36.463Z,14.98
2018-06-22T22:21:05.020Z,20.02
2018-06-22T22:23:33.451Z,11.20
2018-06-22T22:26:01.950Z,17.60
2018-06-22T22:28:30.355Z,17.32
2018-06-22T22:30:58.478Z,16.00
2018-06-22T22:33:26.887Z,17.23
2018-06-22T22:35:55.265Z,12.58
2018-06-22T22:38:23.675Z,10.50
2018-06-22T22:40:52.058Z,16.57
2018-06-22T22:43:20.461Z,16.02
2018-06-22T22:45:48.896Z,16.90
2018-06-22T22:48:16.981Z,15.18
2018-06-22T22:50:45.463Z,14.95
2018-06-22T22:53:13.843Z,17.70
2018-06-22T22:55:42.254Z,17.47
2018-06-22T22:58:10.644Z,12.07
2018-06-22T23:00:39.023Z,12.63
2018-06-22T23:03:07.428Z,13.10
2018-06-22T23:05:35.813Z,13.53
2018-06-22T23:08:04.227Z,18.27
2018-06-22T23:10:32.623Z,16.40
2018-06-22T23:13:01.024Z,14.70
2018-06-22T23:15:29.503Z,13.40
2018-06-22T23:17:57.943Z,15.05
2018-06-22T23:20:26.600Z,13.62
2018-06-22T23:23:06.326Z,12.55
2018-06-22T23:25:34.726Z,16.82
2018-06-22T23:28:03.129Z,19.63
2018-06-22T23:30:31.540Z,16.87
2018-06-22T23:32:59.918Z,16.55
2018-06-22T23:35:28.320Z,15.93
2018-06-22T23:37:56.764Z,12.55
2018-06-22T23:40:25.535Z,19.63
2018-06-22T23:42:53.982Z,14.93
2018-06-22T23:45:22.563Z,19.10
2018-06-22T23:47:51.151Z,14.83
2018-06-22T23:50:19.235Z,16.45
2018-06-22T23:52:47.420Z,14.53
2018-06-22T23:55:15.824Z,24.63
2018-06-22T23:57:44.231Z,16.73
